createdAt,value
2022-11-27T00:01:32.335Z,102485.81
2022-11-27T00:03:59.800Z,102488.41
2022-11-27T00:06:30.280Z,102486.66
2022-11-27T00:09:02.260Z,102489.25
2022-11-27T00:11:31.496Z,102479.63
2022-11-27T00:14:00.372Z,102474.41
2022-11-27T00:16:28.427Z,102470.91
2022-11-27T00:18:55.666Z,102465.63
2022-11-27T00:21:33.391Z,102468.19
2022-11-27T00:24:04.190Z,102470.75
2022-11-27T00:26:37.486Z,102454.09
2022-11-27T00:29:06.853Z,102455.78
2022-11-27T00:31:38.151Z,102455.78
2022-11-27T00:34:08.899Z,102454.09
2022-11-27T00:36:37.285Z,102452.38
2022-11-27T00:39:05.506Z,102449.72
2022-11-27T00:41:32.896Z,102449.69
2022-11-27T00:44:00.089Z,102447.94
2022-11-27T00:46:30.814Z,102446.16
2022-11-27T00:49:01.266Z,102446.22
2022-11-27T00:51:30.247Z,102438.34
2022-11-27T00:53:58.479Z,102444.47
2022-11-27T00:56:37.275Z,102440.94
2022-11-27T00:59:07.552Z,102437.47
2022-11-27T01:01:42.296Z,102430.47
2022-11-27T01:04:14.525Z,102439.16
2022-11-27T01:06:43.055Z,102440.94
2022-11-27T01:09:13.970Z,102445.25
2022-11-27T01:11:43.065Z,102447.81
2022-11-27T01:14:16.718Z,102435.59
2022-11-27T01:16:44.831Z,102432.06
2022-11-27T01:19:13.658Z,102430.28
2022-11-27T01:21:41.405Z,102424.06
2022-11-27T01:24:10.128Z,102418.75
2022-11-27T01:26:37.127Z,102416.97
2022-11-27T01:29:04.401Z,102415.97
2022-11-27T01:31:33.854Z,102414.97
2022-11-27T01:34:06.515Z,102418.34
2022-11-27T01:36:34.975Z,102417.38
2022-11-27T01:39:04.551Z,102418.13
2022-11-27T01:41:36.031Z,102410.19
2022-11-27T01:44:24.422Z,102415.34
2022-11-27T01:47:07.609Z,102411.78
2022-11-27T01:49:41.299Z,102410.84
2022-11-27T01:52:20.995Z,102398.63
2022-11-27T01:54:56.546Z,102409.91
2022-11-27T01:57:38.866Z,102406.44
2022-11-27T02:00:13.976Z,102402.09
2022-11-27T02:02:43.779Z,102399.50
2022-11-27T02:05:17.973Z,102395.31
2022-11-27T02:07:47.214Z,102382.38
2022-11-27T02:10:15.906Z,102372.94
2022-11-27T02:13:09.396Z,102362.69
2022-11-27T02:15:54.058Z,102354.06
2022-11-27T02:18:54.287Z,102347.25
2022-11-27T02:21:37.855Z,102341.25
2022-11-27T02:24:43.666Z,102329.16
2022-11-27T02:27:58.711Z,102329.25
2022-11-27T02:30:26.558Z,102317.13
2022-11-27T02:33:02.901Z,102314.56
2022-11-27T02:35:53.837Z,102314.59
2022-11-27T02:38:32.633Z,102309.44
2022-11-27T02:41:06.418Z,102294.69
2022-11-27T02:43:39.066Z,102297.31
2022-11-27T02:46:10.154Z,102296.47
2022-11-27T02:49:06.616Z,102275.50
2022-11-27T02:51:52.540Z,102278.19
2022-11-27T02:54:26.990Z,102272.03
2022-11-27T02:56:57.304Z,102263.31
2022-11-27T02:59:29.576Z,102273.81
2022-11-27T03:02:08.677Z,102277.28
2022-11-27T03:04:46.318Z,102286.88
2022-11-27T03:07:28.041Z,102289.53
2022-11-27T03:10:03.427Z,102286.97
2022-11-27T03:12:30.547Z,102299.19
2022-11-27T03:14:58.095Z,102287.88
2022-11-27T03:17:52.351Z,102284.41
2022-11-27T03:20:36.765Z,102274.91
2022-11-27T03:23:04.055Z,102272.31
2022-11-27T03:25:31.144Z,102268.91
2022-11-27T03:28:10.377Z,102275.91
2022-11-27T03:30:40.970Z,102276.91
2022-11-27T03:33:08.135Z,102274.31
2022-11-27T03:35:35.129Z,102270.06
2022-11-27T03:38:03.390Z,102266.56
2022-11-27T03:40:50.335Z,102270.13
2022-11-27T03:43:30.498Z,102264.91
2022-11-27T03:46:03.022Z,102270.13
2022-11-27T03:49:00.861Z,102271.06
2022-11-27T03:52:02.188Z,102276.31
2022-11-27T03:54:57.650Z,102274.59
2022-11-27T03:58:01.586Z,102265.97
2022-11-27T04:00:40.920Z,102264.22
2022-11-27T04:03:12.463Z,102266.88
2022-11-27T04:05:40.555Z,102264.28
2022-11-27T04:08:07.595Z,102257.31
2022-11-27T04:10:34.621Z,102251.22
2022-11-27T04:13:01.677Z,102244.34
2022-11-27T04:15:28.726Z,102246.97
2022-11-27T04:17:55.759Z,102234.78
2022-11-27T04:20:22.961Z,102240.03
2022-11-27T04:22:50.136Z,102242.66
2022-11-27T04:25:23.318Z,102242.66
2022-11-27T04:27:50.997Z,102236.56
2022-11-27T04:30:18.843Z,102236.53
2022-11-27T04:32:45.811Z,102238.25
2022-11-27T04:35:12.871Z,102239.97
2022-11-27T04:37:40.160Z,102234.78
2022-11-27T04:40:11.192Z,102240.06
2022-11-27T04:42:38.204Z,102234.81
2022-11-27T04:45:06.092Z,102236.56
2022-11-27T04:47:34.125Z,102239.16
2022-11-27T04:50:02.234Z,102240.91
2022-11-27T04:52:29.338Z,102238.34
2022-11-27T04:54:59.999Z,102238.31
2022-11-27T04:57:27.994Z,102232.22
2022-11-27T04:59:55.125Z,102234.88
2022-11-27T05:02:22.825Z,102235.75
2022-11-27T05:04:50.170Z,102231.38
2022-11-27T05:07:19.210Z,102224.44
2022-11-27T05:09:46.327Z,102225.28
2022-11-27T05:12:13.381Z,102213.06
2022-11-27T05:14:40.618Z,102207.84
2022-11-27T05:17:08.931Z,102213.94
2022-11-27T05:19:37.073Z,102201.72
2022-11-27T05:22:06.224Z,102200.84
2022-11-27T05:24:33.561Z,102196.47
2022-11-27T05:27:00.598Z,102189.47
2022-11-27T05:29:28.633Z,102190.41
2022-11-27T05:31:55.794Z,102185.16
2022-11-27T05:34:23.090Z,102175.56
2022-11-27T05:36:50.241Z,102164.25
2022-11-27T05:39:17.322Z,102160.72
2022-11-27T05:41:44.585Z,102166.81
2022-11-27T05:44:15.922Z,102170.31
2022-11-27T05:46:44.386Z,102161.66
2022-11-27T05:49:16.638Z,102160.81
2022-11-27T05:51:51.289Z,102166.94
2022-11-27T05:54:19.955Z,102166.94
2022-11-27T05:56:47.671Z,102168.69
2022-11-27T05:59:15.893Z,102161.75
2022-11-27T06:01:46.079Z,102163.53
2022-11-27T06:04:13.827Z,102153.94
2022-11-27T06:06:41.454Z,102160.00
2022-11-27T06:09:13.041Z,102153.06
2022-11-27T06:11:42.342Z,102154.81
2022-11-27T06:14:11.813Z,102146.97
2022-11-27T06:16:40.789Z,102141.75
2022-11-27T06:19:09.314Z,102140.91
2022-11-27T06:21:38.199Z,102146.13
2022-11-27T06:24:06.531Z,102135.69
2022-11-27T06:26:35.217Z,102135.69
2022-11-27T06:29:03.383Z,102132.22
2022-11-27T06:31:34.097Z,102126.13
2022-11-27T06:34:02.850Z,102131.38
2022-11-27T06:36:38.528Z,102133.13
2022-11-27T06:39:07.915Z,102139.22
2022-11-27T06:41:35.390Z,102130.50
2022-11-27T06:44:02.909Z,102120.06
2022-11-27T06:46:31.347Z,102125.31
2022-11-27T06:48:59.964Z,102124.44
2022-11-27T06:51:31.738Z,102114.88
2022-11-27T06:54:02.126Z,102128.00
2022-11-27T06:56:32.311Z,102129.72
2022-11-27T06:59:01.904Z,102126.28
2022-11-27T07:01:32.337Z,102124.53
2022-11-27T07:04:00.553Z,102114.97
2022-11-27T07:06:28.822Z,102124.59
2022-11-27T07:08:57.285Z,102115.84
2022-11-27T07:11:29.036Z,102116.78
2022-11-27T07:14:01.885Z,102110.66
2022-11-27T07:16:33.929Z,102106.34
2022-11-27T07:19:07.297Z,102111.56
2022-11-27T07:21:38.649Z,102102.88
2022-11-27T07:24:07.043Z,102100.34
2022-11-27T07:26:34.748Z,102095.38
2022-11-27T07:29:02.525Z,102099.97
2022-11-27T07:31:31.543Z,102095.75
2022-11-27T07:33:59.648Z,102092.25
2022-11-27T07:36:33.657Z,102094.88
2022-11-27T07:39:02.739Z,102085.31
2022-11-27T07:41:34.138Z,102083.66
2022-11-27T07:44:04.645Z,102094.19
2022-11-27T07:46:32.636Z,102099.44
2022-11-27T07:49:00.823Z,102085.50
2022-11-27T07:51:28.971Z,102088.09
2022-11-27T07:53:56.399Z,102084.59
2022-11-27T07:56:24.204Z,102081.09
2022-11-27T07:58:52.262Z,102085.47
2022-11-27T08:01:21.750Z,102074.97
2022-11-27T08:03:51.077Z,102077.63
2022-11-27T08:06:27.764Z,102066.25
2022-11-27T08:08:58.186Z,102068.88
2022-11-27T08:11:32.985Z,102059.28
2022-11-27T08:14:05.500Z,102061.00
2022-11-27T08:16:34.112Z,102057.44
2022-11-27T08:19:01.809Z,102046.06
2022-11-27T08:21:32.434Z,102048.69
2022-11-27T08:23:59.665Z,102047.84
2022-11-27T08:26:29.787Z,102048.75
2022-11-27T08:28:58.044Z,102052.25
2022-11-27T08:31:25.193Z,102056.47
2022-11-27T08:33:52.561Z,102048.53
2022-11-27T08:36:19.940Z,102050.16
2022-11-27T08:38:47.200Z,102047.47
2022-11-27T08:41:14.444Z,102050.91
2022-11-27T08:43:41.578Z,102045.63
2022-11-27T08:46:09.538Z,102048.22
2022-11-27T08:48:37.167Z,102054.31
2022-11-27T08:51:12.234Z,102040.28
2022-11-27T08:53:40.029Z,102037.66
2022-11-27T08:56:21.983Z,102035.00
2022-11-27T08:58:52.400Z,102029.78
2022-11-27T09:01:27.282Z,102027.13
2022-11-27T09:03:55.607Z,102026.25
2022-11-27T09:06:28.799Z,102024.53
2022-11-27T09:08:58.800Z,102016.69
2022-11-27T09:11:28.542Z,101999.22
2022-11-27T09:13:55.616Z,101996.59
2022-11-27T09:16:23.330Z,102007.94
2022-11-27T09:18:52.841Z,101995.72
2022-11-27T09:21:23.120Z,102000.97
2022-11-27T09:23:56.475Z,101994.00
2022-11-27T09:26:25.746Z,101992.25
2022-11-27T09:28:54.406Z,101988.78
2022-11-27T09:31:23.226Z,101987.91
2022-11-27T09:33:50.562Z,101988.81
2022-11-27T09:36:25.315Z,101988.81
2022-11-27T09:38:53.164Z,101995.84
2022-11-27T09:41:52.568Z,101989.75
2022-11-27T09:44:45.315Z,101994.16
2022-11-27T09:47:38.370Z,101987.22
2022-11-27T09:50:24.301Z,101982.00
2022-11-27T09:53:03.838Z,101988.97
2022-11-27T09:55:46.572Z,101993.38
2022-11-27T09:58:42.293Z,101997.78
2022-11-27T10:01:26.096Z,101991.72
2022-11-27T10:03:56.139Z,101999.59
2022-11-27T10:06:54.479Z,101983.91
2022-11-27T10:09:51.951Z,101985.66
2022-11-27T10:12:50.082Z,101988.34
2022-11-27T10:15:51.843Z,101980.53
2022-11-27T10:18:43.959Z,101975.31
2022-11-27T10:21:38.161Z,101969.25
2022-11-27T10:24:24.028Z,101974.50
2022-11-27T10:26:57.239Z,101964.94
2022-11-27T10:29:48.867Z,101959.75
2022-11-27T10:35:22.059Z,101951.94
2022-11-27T10:38:11.558Z,101946.72
2022-11-27T10:41:48.834Z,101939.75
2022-11-27T10:44:33.939Z,101935.41
2022-11-27T10:47:10.274Z,101930.19
2022-11-27T10:49:41.075Z,101924.09
2022-11-27T10:52:15.627Z,101920.63
2022-11-27T10:55:09.832Z,101908.38
2022-11-27T10:58:15.950Z,101904.03
2022-11-27T11:00:43.019Z,101911.03
2022-11-27T11:03:19.014Z,101909.28
2022-11-27T11:08:49.365Z,101897.06
2022-11-27T11:11:26.441Z,101902.31
2022-11-27T11:13:54.950Z,101898.81
2022-11-27T11:16:29.397Z,101892.69
2022-11-27T11:19:01.012Z,101887.44
2022-11-27T11:21:38.674Z,101882.19
2022-11-27T11:24:28.826Z,101882.22
2022-11-27T11:27:01.136Z,101862.09
2022-11-27T11:29:51.146Z,101870.00
2022-11-27T11:32:32.693Z,101872.59
2022-11-27T11:35:08.488Z,101852.53
2022-11-27T11:37:41.899Z,101851.63
2022-11-27T11:40:16.715Z,101852.53
2022-11-27T11:43:10.073Z,101850.75
2022-11-27T11:45:48.741Z,101848.16
2022-11-27T11:48:25.518Z,101842.03
2022-11-27T11:51:14.729Z,101842.91
2022-11-27T11:54:14.257Z,101843.78
2022-11-27T11:56:49.520Z,101837.66
2022-11-27T11:59:39.629Z,101842.88
2022-11-27T12:02:56.073Z,101839.41
2022-11-27T12:05:38.575Z,101835.00
2022-11-27T12:08:55.132Z,101831.53
2022-11-27T12:11:48.102Z,101824.53
2022-11-27T12:14:50.134Z,101817.56
2022-11-27T12:17:42.499Z,101809.69
2022-11-27T12:20:24.122Z,101802.72
2022-11-27T12:23:39.327Z,101785.19
2022-11-27T12:27:00.694Z,101763.38
2022-11-27T12:29:58.171Z,101754.63
2022-11-27T12:32:43.845Z,101747.63
2022-11-27T12:35:32.189Z,101735.41
2022-11-27T12:38:28.190Z,101727.56
2022-11-27T12:41:13.765Z,101727.53
2022-11-27T12:43:49.771Z,101725.81
2022-11-27T12:46:41.553Z,101726.66
2022-11-27T12:49:31.912Z,101724.94
2022-11-27T12:52:20.197Z,101731.03
2022-11-27T12:55:05.562Z,101717.03
2022-11-27T12:58:00.263Z,101718.81
2022-11-27T13:00:32.783Z,101717.94
2022-11-27T13:03:22.896Z,101717.06
2022-11-27T13:06:05.550Z,101705.69
2022-11-27T13:09:08.465Z,101704.81
2022-11-27T13:11:41.746Z,101700.44
2022-11-27T13:14:21.478Z,101702.19
2022-11-27T13:17:03.045Z,101687.34
2022-11-27T13:19:44.086Z,101694.31
2022-11-27T13:22:36.056Z,101688.22
2022-11-27T13:25:04.154Z,101675.09
2022-11-27T13:27:36.235Z,101687.34
2022-11-27T13:30:08.036Z,101680.34
2022-11-27T13:32:57.874Z,101666.34
2022-11-27T13:35:41.848Z,101682.97
2022-11-27T13:38:24.502Z,101687.34
2022-11-27T13:40:56.088Z,101662.00
2022-11-27T13:43:39.929Z,101650.66
2022-11-27T13:46:16.313Z,101635.78
2022-11-27T13:48:52.686Z,101630.56
2022-11-27T13:51:46.259Z,101619.19
2022-11-27T13:54:24.611Z,101624.44
2022-11-27T13:57:11.807Z,101630.56
2022-11-27T13:59:40.023Z,101628.81
2022-11-27T14:02:08.806Z,101623.56
2022-11-27T14:04:54.366Z,101630.56
2022-11-27T14:07:34.881Z,101629.69
2022-11-27T14:10:31.806Z,101620.91
2022-11-27T14:13:05.327Z,101614.81
2022-11-27T14:15:38.416Z,101617.44
2022-11-27T14:18:21.151Z,101620.91
2022-11-27T14:20:57.933Z,101621.81
2022-11-27T14:23:48.393Z,101611.28
2022-11-27T14:26:16.334Z,101604.31
2022-11-27T14:28:50.505Z,101592.09
2022-11-27T14:31:35.743Z,101592.06
2022-11-27T14:34:24.380Z,101584.22
2022-11-27T14:36:53.294Z,101576.38
2022-11-27T14:39:34.553Z,101578.97
2022-11-27T14:42:08.195Z,101569.38
2022-11-27T14:44:35.527Z,101574.63
2022-11-27T14:47:07.247Z,101578.09
2022-11-27T14:49:34.690Z,101577.22
2022-11-27T14:52:15.198Z,101575.47
2022-11-27T14:54:44.650Z,101578.97
2022-11-27T14:57:26.607Z,101583.31
2022-11-27T15:00:25.220Z,101583.31
2022-11-27T15:02:53.428Z,101585.06
2022-11-27T15:05:29.652Z,101575.44
2022-11-27T15:08:00.830Z,101573.72
2022-11-27T15:10:38.177Z,101578.09
2022-11-27T15:13:08.232Z,101578.97
2022-11-27T15:15:44.618Z,101575.47
2022-11-27T15:18:23.046Z,101567.63
2022-11-27T15:20:51.777Z,101571.13
2022-11-27T15:23:34.301Z,101564.97
2022-11-27T15:26:16.780Z,101554.50
2022-11-27T15:28:57.404Z,101558.91
2022-11-27T15:31:37.607Z,101551.94
2022-11-27T15:34:22.234Z,101551.06
2022-11-27T15:37:39.196Z,101555.41
2022-11-27T15:40:37.635Z,101537.06
2022-11-27T15:43:13.821Z,101530.97
2022-11-27T15:45:43.680Z,101536.22
2022-11-27T15:48:17.459Z,101532.72
2022-11-27T15:50:51.333Z,101523.97
2022-11-27T15:53:18.857Z,101521.34
2022-11-27T15:55:45.967Z,101523.13
2022-11-27T15:58:13.074Z,101512.63
2022-11-27T16:00:40.604Z,101510.00
2022-11-27T16:03:07.840Z,101510.00
2022-11-27T16:05:34.873Z,101510.88
2022-11-27T16:08:02.154Z,101505.63
2022-11-27T16:10:29.191Z,101495.16
2022-11-27T16:12:57.728Z,101496.88
2022-11-27T16:15:27.619Z,101493.38
2022-11-27T16:17:58.748Z,101489.03
2022-11-27T16:20:27.718Z,101485.53
2022-11-27T16:22:54.979Z,101478.53
2022-11-27T16:25:22.018Z,101482.06
2022-11-27T16:27:49.179Z,101472.41
2022-11-27T16:30:20.047Z,101471.53
2022-11-27T16:32:50.813Z,101468.94
2022-11-27T16:35:18.680Z,101462.81
2022-11-27T16:37:45.716Z,101457.56
2022-11-27T16:40:13.881Z,101458.44
2022-11-27T16:42:41.258Z,101454.94
2022-11-27T16:45:08.927Z,101447.06
2022-11-27T16:47:36.001Z,101438.34
2022-11-27T16:50:03.323Z,101434.81
2022-11-27T16:52:31.039Z,101436.56
2022-11-27T16:54:58.739Z,101429.56
2022-11-27T16:57:26.164Z,101422.59
2022-11-27T16:59:56.099Z,101422.56
2022-11-27T17:02:24.159Z,101404.19
2022-11-27T17:04:51.114Z,101405.03
2022-11-27T17:07:18.250Z,101401.53
2022-11-27T17:09:45.614Z,101400.69
2022-11-27T17:12:12.740Z,101394.56
2022-11-27T17:14:39.979Z,101388.44
2022-11-27T17:17:08.025Z,101382.34
2022-11-27T17:19:35.795Z,101386.69
2022-11-27T17:22:02.902Z,101384.94
2022-11-27T17:24:35.930Z,101377.97
2022-11-27T17:27:06.084Z,101374.47
2022-11-27T17:29:35.497Z,101374.47
2022-11-27T17:32:04.571Z,101371.84
2022-11-27T17:34:32.970Z,101373.56
2022-11-27T17:37:00.187Z,101365.72
2022-11-27T17:39:27.141Z,101362.22
2022-11-27T17:41:54.220Z,101374.47
2022-11-27T17:44:22.282Z,101377.06
2022-11-27T17:46:50.701Z,101381.41
2022-11-27T17:49:19.682Z,101369.16
2022-11-27T17:51:48.984Z,101372.63
2022-11-27T17:54:17.634Z,101373.53
2022-11-27T17:56:51.038Z,101377.91
2022-11-27T17:59:20.143Z,101374.41
2022-11-27T18:01:51.117Z,101370.91
2022-11-27T18:04:19.895Z,101369.19
2022-11-27T18:06:47.245Z,101369.22
2022-11-27T18:09:14.314Z,101375.31
2022-11-27T18:11:43.741Z,101367.47
2022-11-27T18:14:13.602Z,101362.22
2022-11-27T18:16:41.881Z,101357.88
2022-11-27T18:19:11.446Z,101355.25
2022-11-27T18:21:39.706Z,101348.28
2022-11-27T18:24:22.947Z,101342.19
2022-11-27T18:29:44.665Z,101323.91
2022-11-27T18:32:13.983Z,101317.81
2022-11-27T18:34:41.655Z,101316.97
2022-11-27T18:37:11.094Z,101304.78
2022-11-27T18:39:40.426Z,101310.00
2022-11-27T18:42:10.181Z,101304.78
2022-11-27T18:44:45.113Z,101298.69
2022-11-27T18:47:16.443Z,101286.47
2022-11-27T18:49:47.262Z,101288.25
2022-11-27T18:52:14.536Z,101277.78
2022-11-27T18:54:42.082Z,101278.66
2022-11-27T18:57:10.093Z,101283.03
2022-11-27T18:59:39.098Z,101277.81
2022-11-27T19:02:07.256Z,101267.34
2022-11-27T19:04:38.834Z,101269.97
2022-11-27T19:07:06.365Z,101267.34
2022-11-27T19:09:33.435Z,101268.22
2022-11-27T19:12:00.627Z,101270.84
2022-11-27T19:14:28.008Z,101265.63
2022-11-27T19:16:55.109Z,101258.66
2022-11-27T19:22:10.132Z,101256.88
2022-11-27T19:24:39.681Z,101253.44
2022-11-27T19:27:06.840Z,101239.44
2022-11-27T19:29:33.932Z,101247.31
2022-11-27T19:32:02.036Z,101240.31
2022-11-27T19:34:29.378Z,101243.81
2022-11-27T19:36:58.350Z,101248.19
2022-11-27T19:39:27.152Z,101245.53
2022-11-27T19:41:54.825Z,101241.19
2022-11-27T19:44:22.316Z,101240.31
2022-11-27T19:46:49.333Z,101244.69
2022-11-27T19:49:18.141Z,101239.44
2022-11-27T19:51:46.960Z,101237.72
2022-11-27T19:54:19.138Z,101238.59
2022-11-27T19:56:46.550Z,101222.03
2022-11-27T19:59:13.852Z,101224.63
2022-11-27T20:01:42.293Z,101215.03
2022-11-27T20:04:15.307Z,101220.25
2022-11-27T20:06:44.351Z,101206.28
2022-11-27T20:09:13.869Z,101207.16
2022-11-27T20:11:40.899Z,101201.06
2022-11-27T20:14:11.938Z,101200.19
2022-11-27T20:16:41.880Z,101192.34
2022-11-27T20:19:09.086Z,101189.72
2022-11-27T20:21:39.360Z,101185.38
2022-11-27T20:24:06.988Z,101180.13
2022-11-27T20:26:39.638Z,101179.28
2022-11-27T20:29:09.785Z,101166.19
2022-11-27T20:31:39.610Z,101161.81
2022-11-27T20:34:08.601Z,101170.56
2022-11-27T20:36:39.559Z,101159.22
2022-11-27T20:39:06.834Z,101169.72
2022-11-27T20:41:33.988Z,101158.41
2022-11-27T20:44:04.778Z,101159.28
2022-11-27T20:46:33.373Z,101159.28
2022-11-27T20:49:01.729Z,101153.19
2022-11-27T20:51:34.076Z,101137.44
2022-11-27T20:54:09.317Z,101120.03
2022-11-27T20:56:37.723Z,101131.38
2022-11-27T20:59:06.910Z,101136.59
2022-11-27T21:01:38.976Z,101127.91
2022-11-27T21:04:17.853Z,101118.28
2022-11-27T21:06:44.999Z,101128.78
2022-11-27T21:09:14.115Z,101125.28
2022-11-27T21:11:43.592Z,101113.94
2022-11-27T21:14:14.014Z,101120.91
2022-11-27T21:16:48.112Z,101106.06
2022-11-27T21:19:22.975Z,101097.34
2022-11-27T21:21:52.986Z,101103.44
2022-11-27T21:24:25.770Z,101093.84
2022-11-27T21:26:53.068Z,101092.09
2022-11-27T21:29:25.349Z,101091.25
2022-11-27T21:31:55.390Z,101092.97
2022-11-27T21:34:23.453Z,101088.56
2022-11-27T21:36:51.158Z,101089.47
2022-11-27T21:39:22.552Z,101080.75
2022-11-27T21:41:53.766Z,101085.97
2022-11-27T21:44:23.265Z,101096.41
2022-11-27T21:46:51.533Z,101078.97
2022-11-27T21:49:20.429Z,101075.44
2022-11-27T21:51:53.487Z,101071.94
2022-11-27T21:54:24.162Z,101070.16
2022-11-27T21:56:52.719Z,101055.34
2022-11-27T21:59:20.494Z,101064.03
2022-11-27T22:01:47.982Z,101051.84
2022-11-27T22:04:15.321Z,101058.81
2022-11-27T22:06:45.193Z,101051.81
2022-11-27T22:09:15.809Z,101045.72
2022-11-27T22:11:45.325Z,101045.69
2022-11-27T22:14:15.219Z,101041.34
2022-11-27T22:16:46.934Z,101034.34
2022-11-27T22:19:16.621Z,101046.53
2022-11-27T22:21:45.128Z,101033.44
2022-11-27T22:24:18.785Z,101035.19
2022-11-27T22:26:47.962Z,101029.97
2022-11-27T22:29:15.510Z,101015.09
2022-11-27T22:31:45.905Z,100997.66
2022-11-27T22:34:16.351Z,100992.41
2022-11-27T22:36:44.722Z,101009.88
2022-11-27T22:39:11.747Z,101014.19
2022-11-27T22:41:40.686Z,101004.56
2022-11-27T22:44:17.235Z,101013.25
2022-11-27T22:46:45.499Z,101014.13
2022-11-27T22:49:18.008Z,101008.88
2022-11-27T22:51:46.368Z,100997.53
2022-11-27T22:54:17.180Z,100984.44
2022-11-27T22:56:46.134Z,100977.41
2022-11-27T23:02:02.815Z,100983.47
2022-11-27T23:04:29.959Z,100987.81
2022-11-27T23:06:58.697Z,100982.59
2022-11-27T23:09:26.651Z,100976.44
2022-11-27T23:11:54.017Z,100968.53
2022-11-27T23:14:21.055Z,100970.25
2022-11-27T23:16:48.264Z,100964.13
2022-11-27T23:19:15.440Z,100955.41
2022-11-27T23:21:43.567Z,100954.50
2022-11-27T23:24:15.228Z,100957.09
2022-11-27T23:26:44.092Z,100948.31
2022-11-27T23:29:12.157Z,100948.28
2022-11-27T23:31:39.382Z,100951.75
2022-11-27T23:34:13.472Z,100951.69
2022-11-27T23:36:40.705Z,100949.97
2022-11-27T23:39:10.847Z,100956.91
2022-11-27T23:41:39.791Z,100951.56
2022-11-27T23:44:07.105Z,100951.56
2022-11-27T23:46:34.378Z,100940.19
2022-11-27T23:49:01.454Z,100942.81
2022-11-27T23:51:33.409Z,100934.03
2022-11-27T23:54:01.737Z,100929.66
2022-11-27T23:56:32.448Z,100940.13
2022-11-27T23:59:00.994Z,100937.50
